createdAt,value
2023-07-07T00:01:15.921Z,96946.97
2023-07-07T00:03:44.033Z,96947.19
2023-07-07T00:06:11.614Z,96948.00
2023-07-07T00:08:39.300Z,96950.50
2023-07-07T00:11:06.865Z,96948.72
2023-07-07T00:13:35.761Z,96953.47
2023-07-07T00:16:04.559Z,96958.16
2023-07-07T00:18:32.338Z,96950.22
2023-07-07T00:21:01.924Z,96955.50
2023-07-07T00:23:31.173Z,96954.09
2023-07-07T00:26:03.769Z,96957.78
2023-07-07T00:28:31.836Z,96955.94
2023-07-07T00:31:01.550Z,96951.91
2023-07-07T00:33:30.004Z,96952.13
2023-07-07T00:35:57.572Z,96954.19
2023-07-07T00:38:25.203Z,96951.63
2023-07-07T00:40:54.094Z,96951.69
2023-07-07T00:43:23.121Z,96959.09
2023-07-07T00:45:50.756Z,96944.50
2023-07-07T00:48:23.026Z,96964.03
2023-07-07T00:50:54.096Z,96962.25
2023-07-07T00:53:22.674Z,96964.75
2023-07-07T00:55:54.909Z,96969.09
2023-07-07T00:58:24.917Z,96967.47
2023-07-07T01:00:58.986Z,96964.81
2023-07-07T01:03:33.609Z,96968.50
2023-07-07T01:06:03.901Z,96964.69
2023-07-07T01:08:31.676Z,96964.53
2023-07-07T01:10:59.379Z,96958.78
2023-07-07T01:13:28.222Z,96969.84
2023-07-07T01:16:07.695Z,96972.44
2023-07-07T01:18:42.440Z,96967.91
2023-07-07T01:21:17.937Z,96973.00
2023-07-07T01:24:20.326Z,96978.69
2023-07-07T01:27:02.001Z,96976.09
2023-07-07T01:29:56.458Z,96971.28
2023-07-07T01:32:30.102Z,96970.66
2023-07-07T01:34:59.676Z,96970.66
2023-07-07T01:37:27.362Z,96968.03
2023-07-07T01:39:56.339Z,96966.84
2023-07-07T01:42:29.970Z,96970.34
2023-07-07T01:45:05.817Z,96970.56
2023-07-07T01:47:37.708Z,96965.13
2023-07-07T01:50:09.744Z,96972.44
2023-07-07T01:52:41.973Z,96967.56
2023-07-07T01:55:16.993Z,96960.66
2023-07-07T01:57:47.436Z,96968.34
2023-07-07T02:00:17.598Z,96972.00
2023-07-07T02:02:46.980Z,96973.03
2023-07-07T02:05:15.377Z,96975.25
2023-07-07T02:07:43.216Z,96970.78
2023-07-07T02:10:11.939Z,96966.34
2023-07-07T02:12:39.648Z,96974.47
2023-07-07T02:15:08.586Z,96969.59
2023-07-07T02:17:36.464Z,96970.03
2023-07-07T02:20:06.622Z,96968.81
2023-07-07T02:22:34.290Z,96962.78
2023-07-07T02:25:01.946Z,96966.44
2023-07-07T02:27:29.563Z,96964.84
2023-07-07T02:29:57.239Z,96957.38
2023-07-07T02:32:27.189Z,96960.00
2023-07-07T02:34:56.387Z,96958.19
2023-07-07T02:37:25.626Z,96957.19
2023-07-07T02:39:53.475Z,96954.94
2023-07-07T02:42:21.089Z,96945.84
2023-07-07T02:44:48.746Z,96947.69
2023-07-07T02:47:16.450Z,96946.69
2023-07-07T02:49:44.104Z,96952.53
2023-07-07T02:52:12.191Z,96956.38
2023-07-07T02:54:41.197Z,96954.34
2023-07-07T02:57:08.886Z,96959.41
2023-07-07T02:59:36.462Z,96952.13
2023-07-07T03:02:05.657Z,96951.13
2023-07-07T03:04:33.297Z,96955.75
2023-07-07T03:07:00.941Z,96956.09
2023-07-07T03:09:28.578Z,96959.91
2023-07-07T03:11:57.575Z,96960.09
2023-07-07T03:14:25.191Z,96960.69
2023-07-07T03:16:53.599Z,96961.09
2023-07-07T03:19:21.691Z,96963.13
2023-07-07T03:21:49.385Z,96963.72
2023-07-07T03:24:17.485Z,96969.19
2023-07-07T03:26:45.577Z,96965.53
2023-07-07T03:29:14.709Z,96970.03
2023-07-07T03:31:42.395Z,96977.72
2023-07-07T03:34:10.131Z,96972.88
2023-07-07T03:36:38.428Z,96981.56
2023-07-07T03:39:06.349Z,96977.97
2023-07-07T03:41:34.162Z,96981.84
2023-07-07T03:44:02.127Z,96978.22
2023-07-07T03:46:31.762Z,96975.59
2023-07-07T03:49:00.318Z,96982.66
2023-07-07T03:51:29.933Z,96978.59
2023-07-07T03:53:57.670Z,96989.72
2023-07-07T03:56:27.767Z,96989.31
2023-07-07T03:58:55.461Z,96995.38
2023-07-07T04:01:23.077Z,96988.72
2023-07-07T04:03:52.269Z,96991.94
2023-07-07T04:06:21.114Z,96991.75
2023-07-07T04:08:49.005Z,96993.75
2023-07-07T04:11:18.668Z,97003.25
2023-07-07T04:13:49.741Z,96997.00
2023-07-07T04:16:20.524Z,96996.38
2023-07-07T04:18:48.758Z,97009.91
2023-07-07T04:21:21.206Z,97010.50
2023-07-07T04:23:50.344Z,97009.91
2023-07-07T04:26:18.949Z,97009.09
2023-07-07T04:28:46.635Z,97019.44
2023-07-07T04:31:15.440Z,97018.41
2023-07-07T04:33:43.715Z,97017.41
2023-07-07T04:36:14.096Z,97017.41
2023-07-07T04:38:43.999Z,97022.66
2023-07-07T04:41:13.908Z,97020.84
2023-07-07T04:43:44.175Z,97021.03
2023-07-07T04:46:13.430Z,97020.03
2023-07-07T04:48:42.019Z,97024.47
2023-07-07T04:51:11.761Z,97025.88
2023-07-07T04:53:42.104Z,97024.03
2023-07-07T04:56:12.616Z,97023.84
2023-07-07T04:58:41.620Z,97030.34
2023-07-07T05:01:10.605Z,97033.16
2023-07-07T05:03:42.931Z,97026.25
2023-07-07T05:06:11.713Z,97032.13
2023-07-07T05:08:41.420Z,97031.91
2023-07-07T05:11:13.717Z,97030.50
2023-07-07T05:13:41.555Z,97035.56
2023-07-07T05:16:11.328Z,97035.56
2023-07-07T05:18:39.366Z,97036.56
2023-07-07T05:21:09.904Z,97033.94
2023-07-07T05:23:38.462Z,97031.91
2023-07-07T05:26:09.155Z,97037.94
2023-07-07T05:28:38.410Z,97040.94
2023-07-07T05:31:08.508Z,97037.88
2023-07-07T05:33:36.891Z,97033.78
2023-07-07T05:36:05.988Z,97030.50
2023-07-07T05:38:34.014Z,97034.06
2023-07-07T05:41:02.143Z,97033.19
2023-07-07T05:43:30.106Z,97036.75
2023-07-07T05:46:01.196Z,97044.78
2023-07-07T05:48:29.622Z,97045.91
2023-07-07T05:51:00.373Z,97042.38
2023-07-07T05:53:29.240Z,97038.44
2023-07-07T05:56:05.050Z,97040.97
2023-07-07T05:58:33.209Z,97046.13
2023-07-07T06:01:02.473Z,97031.63
2023-07-07T06:03:30.347Z,97030.31
2023-07-07T06:05:57.913Z,97040.16
2023-07-07T06:08:25.531Z,97037.81
2023-07-07T06:10:53.401Z,97034.63
2023-07-07T06:13:25.196Z,97035.94
2023-07-07T06:15:54.006Z,97039.09
2023-07-07T06:18:23.818Z,97042.84
2023-07-07T06:20:52.695Z,97050.25
2023-07-07T06:23:20.668Z,97048.13
2023-07-07T06:25:49.046Z,97045.97
2023-07-07T06:28:17.005Z,97050.31
2023-07-07T06:30:45.190Z,97047.38
2023-07-07T06:33:12.778Z,97053.94
2023-07-07T06:35:41.945Z,97053.63
2023-07-07T06:38:09.594Z,97051.47
2023-07-07T06:40:37.192Z,97058.28
2023-07-07T06:43:04.683Z,97060.56
2023-07-07T06:45:35.225Z,97061.31
2023-07-07T06:48:03.952Z,97058.31
2023-07-07T06:50:33.140Z,97063.06
2023-07-07T06:53:02.047Z,97066.16
2023-07-07T06:55:29.568Z,97065.00
2023-07-07T06:57:57.128Z,97072.38
2023-07-07T07:00:25.040Z,97074.44
2023-07-07T07:02:52.672Z,97071.22
2023-07-07T07:05:20.496Z,97074.88
2023-07-07T07:07:49.058Z,97078.56
2023-07-07T07:10:18.184Z,97079.34
2023-07-07T07:12:45.737Z,97068.47
2023-07-07T07:15:13.262Z,97074.78
2023-07-07T07:17:40.886Z,97068.31
2023-07-07T07:20:12.099Z,97064.72
2023-07-07T07:22:39.660Z,97069.63
2023-07-07T07:25:10.038Z,97071.91
2023-07-07T07:27:41.558Z,97069.66
2023-07-07T07:30:13.134Z,97077.59
2023-07-07T07:32:40.787Z,97069.34
2023-07-07T07:35:09.100Z,97072.25
2023-07-07T07:37:37.413Z,97067.06
2023-07-07T07:40:06.444Z,97073.13
2023-07-07T07:42:34.297Z,97074.38
2023-07-07T07:45:03.857Z,97074.06
2023-07-07T07:47:35.848Z,97069.97
2023-07-07T07:50:06.057Z,97068.72
2023-07-07T07:52:41.635Z,97084.00
2023-07-07T07:55:21.602Z,97075.09
2023-07-07T07:57:57.066Z,97073.06
2023-07-07T08:00:32.922Z,97073.75
2023-07-07T08:03:09.949Z,97070.16
2023-07-07T08:05:37.879Z,97080.44
2023-07-07T08:08:07.363Z,97075.50
2023-07-07T08:10:36.362Z,97067.88
2023-07-07T08:13:06.273Z,97081.53
2023-07-07T08:15:38.044Z,97075.75
2023-07-07T08:40:22.820Z,97108.59
2023-07-07T08:43:25.237Z,97100.91
2023-07-07T08:46:00.874Z,97106.00
2023-07-07T08:48:42.556Z,97103.41
2023-07-07T08:51:18.979Z,97108.22
2023-07-07T08:56:35.913Z,97105.94
2023-07-07T08:59:16.408Z,97113.97
2023-07-07T09:01:55.817Z,97105.19
2023-07-07T09:04:33.350Z,97100.41
2023-07-07T09:07:20.294Z,97091.38
2023-07-07T09:10:04.133Z,97100.75
2023-07-07T09:12:39.390Z,97102.09
2023-07-07T09:15:15.024Z,97101.06
2023-07-07T09:17:46.961Z,97093.59
2023-07-07T09:20:18.094Z,97095.22
2023-07-07T09:22:49.543Z,97096.88
2023-07-07T09:25:21.253Z,97094.75
2023-07-07T09:27:59.525Z,97095.81
2023-07-07T09:30:32.291Z,97101.97
2023-07-07T09:33:00.183Z,97096.09
2023-07-07T09:35:32.838Z,97090.50
2023-07-07T09:38:12.306Z,97094.25
2023-07-07T09:40:46.024Z,97088.91
2023-07-07T09:43:26.097Z,97097.75
2023-07-07T09:46:09.038Z,97095.34
2023-07-07T09:48:45.020Z,97084.94
2023-07-07T09:51:24.130Z,97087.34
2023-07-07T09:53:52.504Z,97081.72
2023-07-07T09:56:24.067Z,97092.16
2023-07-07T09:59:04.381Z,97083.59
2023-07-07T10:01:37.652Z,97083.84
2023-07-07T10:04:14.794Z,97078.00
2023-07-07T10:06:49.455Z,97076.91
2023-07-07T10:09:17.415Z,97077.94
2023-07-07T10:14:19.510Z,97085.44
2023-07-07T10:16:56.444Z,97078.72
2023-07-07T10:19:25.166Z,97081.09
2023-07-07T10:21:53.387Z,97075.97
2023-07-07T10:24:21.875Z,97087.78
2023-07-07T10:26:49.590Z,97078.63
2023-07-07T10:29:22.331Z,97074.31
2023-07-07T10:31:52.138Z,97085.50
2023-07-07T10:34:27.425Z,97074.81
2023-07-07T10:36:56.819Z,97075.84
2023-07-07T10:39:25.348Z,97060.28
2023-07-07T10:41:52.893Z,97061.84
2023-07-07T10:44:25.207Z,97068.53
2023-07-07T10:46:52.826Z,97071.72
2023-07-07T10:49:25.434Z,97071.44
2023-07-07T10:52:11.431Z,97080.50
2023-07-07T10:54:47.803Z,97058.19
2023-07-07T10:57:26.161Z,97065.41
2023-07-07T11:00:04.266Z,97065.09
2023-07-07T11:02:59.725Z,97062.63
2023-07-07T11:05:36.958Z,97059.97
2023-07-07T11:08:21.430Z,97056.72
2023-07-07T11:11:07.656Z,97054.00
2023-07-07T11:13:51.096Z,97050.22
2023-07-07T11:16:32.972Z,97056.09
2023-07-07T11:19:18.060Z,97053.88
2023-07-07T11:21:57.945Z,97043.66
2023-07-07T11:24:54.982Z,97045.47
2023-07-07T11:27:27.004Z,97038.78
2023-07-07T11:30:01.861Z,97047.34
2023-07-07T11:32:39.794Z,97049.97
2023-07-07T11:35:18.874Z,97041.84
2023-07-07T11:38:00.986Z,97045.56
2023-07-07T11:40:37.640Z,97039.34
2023-07-07T11:43:21.674Z,97049.00
2023-07-07T11:46:08.416Z,97048.72
2023-07-07T11:48:42.026Z,97048.72
2023-07-07T11:51:24.856Z,97044.16
2023-07-07T11:54:08.806Z,97045.47
2023-07-07T11:56:53.656Z,97047.56
2023-07-07T11:59:39.154Z,97046.19
2023-07-07T12:02:15.749Z,97052.09
2023-07-07T12:04:46.568Z,97047.22
2023-07-07T12:07:21.507Z,97037.28
2023-07-07T12:09:54.601Z,97038.91
2023-07-07T12:12:29.047Z,97043.69
2023-07-07T12:15:04.015Z,97035.66
2023-07-07T12:17:37.790Z,97030.00
2023-07-07T12:20:15.680Z,97036.41
2023-07-07T12:22:43.283Z,97024.91
2023-07-07T12:25:22.708Z,97034.56
2023-07-07T12:27:52.684Z,97015.53
2023-07-07T12:30:26.265Z,97014.94
2023-07-07T12:32:54.391Z,97022.41
2023-07-07T12:35:29.730Z,97022.63
2023-07-07T12:37:58.513Z,97006.81
2023-07-07T12:40:26.785Z,97005.44
2023-07-07T12:43:01.060Z,97011.06
2023-07-07T12:45:32.650Z,97021.81
2023-07-07T12:48:05.806Z,97009.47
2023-07-07T12:50:37.806Z,97014.03
2023-07-07T12:53:07.000Z,97004.63
2023-07-07T12:55:39.087Z,97005.75
2023-07-07T12:58:32.977Z,96999.81
2023-07-07T13:01:12.100Z,96992.00
2023-07-07T13:03:47.482Z,96999.78
2023-07-07T13:06:34.528Z,96996.91
2023-07-07T13:09:22.003Z,96990.03
2023-07-07T13:11:52.232Z,97001.63
2023-07-07T13:14:32.624Z,96987.44
2023-07-07T13:17:02.643Z,96997.13
2023-07-07T13:19:30.868Z,96985.38
2023-07-07T13:22:03.678Z,96988.91
2023-07-07T13:24:41.204Z,96983.81
2023-07-07T13:27:14.773Z,96995.06
2023-07-07T13:29:43.197Z,96986.97
2023-07-07T13:32:27.326Z,96983.16
2023-07-07T13:34:55.842Z,96977.78
2023-07-07T13:37:26.548Z,96984.16
2023-07-07T13:39:54.206Z,96980.91
2023-07-07T13:42:25.385Z,96983.31
2023-07-07T13:45:00.420Z,96979.81
2023-07-07T13:47:32.282Z,96978.44
2023-07-07T13:50:02.647Z,96976.59
2023-07-07T13:52:34.379Z,96973.91
2023-07-07T13:55:01.915Z,96966.91
2023-07-07T13:57:32.321Z,96968.00
2023-07-07T14:00:01.904Z,96969.69
2023-07-07T14:02:30.319Z,96960.00
2023-07-07T14:05:02.339Z,96967.00
2023-07-07T14:07:29.973Z,96967.00
2023-07-07T14:09:59.357Z,96967.53
2023-07-07T14:12:30.036Z,96959.00
2023-07-07T14:15:00.242Z,96959.00
2023-07-07T14:17:34.681Z,96961.19
2023-07-07T14:20:09.235Z,96956.34
2023-07-07T14:22:37.617Z,96948.28
2023-07-07T14:25:08.414Z,96942.41
2023-07-07T14:27:36.170Z,96950.47
2023-07-07T14:30:03.983Z,96944.28
2023-07-07T14:32:37.584Z,96945.66
2023-07-07T14:35:15.765Z,96947.59
2023-07-07T14:37:50.149Z,96941.44
2023-07-07T14:40:28.729Z,96949.97
2023-07-07T14:42:57.023Z,96938.47
2023-07-07T14:45:27.104Z,96935.84
2023-07-07T14:47:55.321Z,96931.88
2023-07-07T14:50:23.564Z,96932.41
2023-07-07T14:52:54.546Z,96937.78
2023-07-07T14:55:26.092Z,96934.81
2023-07-07T14:57:58.137Z,96930.53
2023-07-07T15:00:37.836Z,96928.44
2023-07-07T15:03:29.681Z,96933.56
2023-07-07T15:06:02.011Z,96918.06
2023-07-07T15:08:31.126Z,96920.22
2023-07-07T15:11:02.581Z,96925.34
2023-07-07T15:13:30.973Z,96923.50
2023-07-07T15:15:58.979Z,96922.38
2023-07-07T15:18:26.792Z,96915.38
2023-07-07T15:20:54.332Z,96910.81
2023-07-07T15:23:21.863Z,96914.28
2023-07-07T15:25:49.819Z,96909.94
2023-07-07T15:28:22.061Z,96909.38
2023-07-07T15:30:49.644Z,96914.75
2023-07-07T15:33:18.256Z,96908.88
2023-07-07T15:35:46.034Z,96906.19
2023-07-07T15:38:47.351Z,96909.38
2023-07-07T15:41:16.757Z,96906.97
2023-07-07T15:43:45.933Z,96906.19
2023-07-07T15:46:15.708Z,96900.03
2023-07-07T15:48:43.275Z,96897.63
2023-07-07T15:51:31.860Z,96896.59
2023-07-07T15:54:00.157Z,96889.44
2023-07-07T15:56:30.382Z,96885.66
2023-07-07T15:58:59.728Z,96887.47
2023-07-07T16:01:27.833Z,96886.63
2023-07-07T16:03:55.665Z,96889.75
2023-07-07T16:06:23.851Z,96878.16
2023-07-07T16:08:51.398Z,96881.06
2023-07-07T16:11:21.108Z,96883.44
2023-07-07T16:13:51.162Z,96876.69
2023-07-07T16:16:23.520Z,96875.34
2023-07-07T16:18:51.709Z,96877.22
2023-07-07T16:21:22.162Z,96877.00
2023-07-07T16:23:49.986Z,96872.50
2023-07-07T16:26:25.460Z,96880.84
2023-07-07T16:28:53.197Z,96876.25
2023-07-07T16:31:23.342Z,96884.03
2023-07-07T16:33:50.993Z,96879.19
2023-07-07T16:36:20.779Z,96875.13
2023-07-07T16:38:49.508Z,96878.31
2023-07-07T16:41:20.085Z,96884.47
2023-07-07T16:43:47.669Z,96877.00
2023-07-07T16:46:17.287Z,96876.50
2023-07-07T16:48:49.922Z,96869.84
2023-07-07T16:51:20.861Z,96875.47
2023-07-07T16:53:48.806Z,96879.75
2023-07-07T16:56:20.931Z,96877.88
2023-07-07T16:58:48.511Z,96884.03
2023-07-07T17:01:17.335Z,96885.41
2023-07-07T17:03:46.561Z,96880.31
2023-07-07T17:06:24.659Z,96880.03
2023-07-07T17:08:52.877Z,96882.72
2023-07-07T17:11:20.623Z,96879.81
2023-07-07T17:13:48.425Z,96873.44
2023-07-07T17:16:21.536Z,96879.38
2023-07-07T17:18:52.265Z,96876.97
2023-07-07T17:21:21.205Z,96880.16
2023-07-07T17:23:49.687Z,96884.44
2023-07-07T17:26:18.471Z,96887.94
2023-07-07T17:28:46.249Z,96878.59
2023-07-07T17:31:15.814Z,96878.34
2023-07-07T17:33:43.720Z,96874.66
2023-07-07T17:36:19.256Z,96881.91
2023-07-07T17:38:46.852Z,96874.66
2023-07-07T17:41:15.431Z,96880.28
2023-07-07T17:43:43.340Z,96866.38
2023-07-07T17:46:23.863Z,96863.41
2023-07-07T17:48:51.736Z,96852.69
2023-07-07T17:51:20.617Z,96866.88
2023-07-07T17:53:48.349Z,96853.78
2023-07-07T17:56:18.310Z,96865.56
2023-07-07T17:58:46.247Z,96864.78
2023-07-07T18:01:14.008Z,96862.38
2023-07-07T18:03:41.800Z,96859.50
2023-07-07T18:06:18.123Z,96866.16
2023-07-07T18:08:47.864Z,96854.94
2023-07-07T18:11:18.583Z,96865.44
2023-07-07T18:13:46.771Z,96864.94
2023-07-07T18:16:18.493Z,96863.63
2023-07-07T18:19:07.176Z,96867.97
2023-07-07T18:21:49.166Z,96866.13
2023-07-07T18:24:23.110Z,96868.06
2023-07-07T18:26:50.697Z,96868.91
2023-07-07T18:29:21.536Z,96873.25
2023-07-07T18:31:49.167Z,96861.81
2023-07-07T18:34:17.101Z,96866.13
2023-07-07T18:36:47.717Z,96868.03
2023-07-07T18:39:21.253Z,96864.63
2023-07-07T18:41:50.301Z,96867.06
2023-07-07T18:44:18.668Z,96871.38
2023-07-07T18:46:46.256Z,96866.84
2023-07-07T18:49:14.766Z,96870.66
2023-07-07T18:51:43.624Z,96865.34
2023-07-07T18:54:11.775Z,96869.16
2023-07-07T18:56:40.160Z,96866.78
2023-07-07T18:59:13.008Z,96865.50
2023-07-07T19:01:41.044Z,96866.66
2023-07-07T19:04:08.967Z,96869.91
2023-07-07T19:06:39.218Z,96871.03
2023-07-07T19:09:16.171Z,96871.06
2023-07-07T19:11:43.820Z,96864.16
2023-07-07T19:14:12.807Z,96863.13
2023-07-07T19:16:40.818Z,96861.53
2023-07-07T19:19:13.719Z,96866.41
2023-07-07T19:21:41.280Z,96868.56
2023-07-07T19:24:11.626Z,96871.84
2023-07-07T19:26:44.583Z,96875.59
2023-07-07T19:29:15.013Z,96874.53
2023-07-07T19:31:43.441Z,96871.88
2023-07-07T19:34:12.558Z,96872.19
2023-07-07T19:36:41.737Z,96872.44
2023-07-07T19:39:15.989Z,96866.59
2023-07-07T19:41:43.617Z,96877.56
2023-07-07T19:44:11.918Z,96871.44
2023-07-07T19:46:42.562Z,96874.41
2023-07-07T19:49:17.570Z,96876.28
2023-07-07T19:51:45.499Z,96876.31
2023-07-07T19:54:13.166Z,96876.31
2023-07-07T19:56:41.437Z,96879.78
2023-07-07T19:59:13.817Z,96884.88
2023-07-07T20:01:42.972Z,96880.34
2023-07-07T20:04:10.530Z,96883.53
2023-07-07T20:06:41.641Z,96886.22
2023-07-07T20:09:15.876Z,96886.72
2023-07-07T20:11:43.387Z,96884.88
2023-07-07T20:14:10.949Z,96889.69
2023-07-07T20:16:44.978Z,96893.94
2023-07-07T20:19:14.368Z,96890.50
2023-07-07T20:21:42.229Z,96891.56
2023-07-07T20:24:15.741Z,96896.06
2023-07-07T20:26:46.855Z,96893.16
2023-07-07T20:29:15.779Z,96897.66
2023-07-07T20:31:45.056Z,96894.47
2023-07-07T20:34:13.672Z,96887.25
2023-07-07T20:36:43.446Z,96885.13
2023-07-07T20:39:14.045Z,96885.38
2023-07-07T20:41:41.937Z,96886.94
2023-07-07T20:44:09.531Z,96878.91
2023-07-07T20:46:39.557Z,96881.31
2023-07-07T20:49:15.177Z,96880.25
2023-07-07T20:51:42.827Z,96871.72
2023-07-07T20:54:10.390Z,96871.41
2023-07-07T20:56:37.952Z,96883.66
2023-07-07T20:59:17.750Z,96879.13
2023-07-07T21:01:53.337Z,96878.81
2023-07-07T21:04:22.325Z,96883.06
2023-07-07T21:06:49.862Z,96881.47
2023-07-07T21:09:18.024Z,96883.06
2023-07-07T21:11:46.112Z,96887.06
2023-07-07T21:14:13.940Z,96886.50
2023-07-07T21:16:45.672Z,96894.75
2023-07-07T21:19:13.657Z,96893.13
2023-07-07T21:21:43.247Z,96902.94
2023-07-07T21:24:10.823Z,96905.88
2023-07-07T21:26:38.634Z,96904.75
2023-07-07T21:29:11.121Z,96906.03
2023-07-07T21:31:40.201Z,96910.56
2023-07-07T21:34:08.245Z,96901.47
2023-07-07T21:36:38.254Z,96905.69
2023-07-07T21:39:20.362Z,96900.91
2023-07-07T21:41:53.563Z,96893.38
2023-07-07T21:44:34.156Z,96897.31
2023-07-07T21:47:01.959Z,96905.25
2023-07-07T21:49:29.501Z,96892.94
2023-07-07T21:51:57.092Z,96894.75
2023-07-07T21:54:26.180Z,96900.59
2023-07-07T21:56:53.741Z,96896.31
2023-07-07T21:59:23.107Z,96909.03
2023-07-07T22:01:52.694Z,96900.50
2023-07-07T22:04:22.758Z,96907.13
2023-07-07T22:06:50.561Z,96910.03
2023-07-07T22:09:19.369Z,96901.47
2023-07-07T22:11:48.296Z,96894.75
2023-07-07T22:14:15.834Z,96890.72
2023-07-07T22:16:43.352Z,96891.78
2023-07-07T22:19:13.430Z,96888.59
2023-07-07T22:21:41.097Z,96884.81
2023-07-07T22:24:08.842Z,96884.28
2023-07-07T22:26:36.839Z,96884.78
2023-07-07T22:29:05.874Z,96888.19
2023-07-07T22:31:33.397Z,96880.16
2023-07-07T22:34:01.042Z,96886.53
2023-07-07T22:36:28.662Z,96877.47
2023-07-07T22:38:56.366Z,96880.63
2023-07-07T22:41:26.044Z,96884.00
2023-07-07T22:43:53.989Z,96878.66
2023-07-07T22:46:26.389Z,96874.88
2023-07-07T22:48:54.027Z,96871.94
2023-07-07T22:51:22.243Z,96882.25
2023-07-07T22:53:50.000Z,96871.28
2023-07-07T22:56:24.680Z,96871.47
2023-07-07T22:58:52.797Z,96875.13
2023-07-07T23:01:20.749Z,96868.66
2023-07-07T23:03:52.586Z,96872.06
2023-07-07T23:06:20.307Z,96861.13
2023-07-07T23:08:48.331Z,96869.34
2023-07-07T23:11:17.455Z,96872.25
2023-07-07T23:13:45.138Z,96865.56
2023-07-07T23:16:13.822Z,96858.59
2023-07-07T23:18:42.450Z,96858.28
2023-07-07T23:21:13.108Z,96862.00
2023-07-07T23:26:15.640Z,96866.75
2023-07-07T23:28:43.155Z,96859.56
2023-07-07T23:31:11.556Z,96858.28
2023-07-07T23:33:39.148Z,96853.53
2023-07-07T23:36:16.740Z,96851.97
2023-07-07T23:38:45.405Z,96850.38
2023-07-07T23:41:13.987Z,96842.66
2023-07-07T23:51:11.071Z,96852.16
2023-07-07T23:53:40.251Z,96843.41
2023-07-07T23:56:13.559Z,96843.91
2023-07-07T23:58:41.150Z,96842.84
